Time;durP1;ratioP1;P1;durP2;ratioP2;P2;SDS_P1;SDS_P2;PMS_P1;PMS_P2;Temp;Humidity;BMP_temperature;BMP_pressure;BME280_temperature;BME280_humidity;BME280_pressure;Samples;Min_cycle;Max_cycle;Signal;HPM_P1;HPM_P2
2021/11/29 00:00:01;;;;;;;9.65;6.22;;;10.20;95.40;;;;;;5048666;28;20187;-75
2021/11/29 00:02:28;;;;;;;9.57;7.25;;;10.20;95.00;;;;;;5047510;28;20188;-75
2021/11/29 00:04:54;;;;;;;11.27;7.38;;;10.20;95.80;;;;;;5050176;28;20218;-75
2021/11/29 00:07:19;;;;;;;10.10;6.13;;;10.20;95.10;;;;;;5046841;28;20176;-75
2021/11/29 00:09:45;;;;;;;7.32;6.32;;;10.20;94.90;;;;;;5046336;28;20657;-75
2021/11/29 00:12:11;;;;;;;7.60;6.13;;;10.30;95.10;;;;;;5046724;28;20188;-75
2021/11/29 00:14:37;;;;;;;10.10;6.97;;;10.30;94.90;;;;;;5046098;28;20187;-75
2021/11/29 00:17:03;;;;;;;7.72;5.93;;;10.30;95.10;;;;;;5055053;28;20187;-75
2021/11/29 00:19:28;;;;;;;9.63;6.30;;;10.20;95.40;;;;;;5046372;28;20190;-75
2021/11/29 00:21:56;;;;;;;9.80;5.53;;;10.20;95.40;;;;;;5053401;28;20258;-75
2021/11/29 00:24:21;;;;;;;8.10;5.10;;;10.20;95.60;;;;;;5049445;28;20768;-75
2021/11/29 00:26:47;;;;;;;5.65;4.63;;;10.10;96.00;;;;;;5048801;28;20298;-75
2021/11/29 00:29:14;;;;;;;7.70;5.22;;;10.10;95.30;;;;;;5055525;28;20579;-75
2021/11/29 00:31:40;;;;;;;6.40;4.55;;;10.20;95.40;;;;;;5053682;28;20191;-75
2021/11/29 00:34:05;;;;;;;4.18;3.88;;;10.20;95.10;;;;;;5049870;28;20192;-75
2021/11/29 00:36:31;;;;;;;5.70;5.18;;;10.20;95.10;;;;;;5051214;28;20333;-75
2021/11/29 00:38:57;;;;;;;4.93;4.53;;;10.20;94.90;;;;;;5047735;28;20182;-75
2021/11/29 00:41:22;;;;;;;6.35;5.75;;;10.30;94.60;;;;;;5055311;28;20978;-74
2021/11/29 00:43:48;;;;;;;5.82;5.20;;;10.30;95.40;;;;;;5048843;28;20210;-75
2021/11/29 00:46:14;;;;;;;6.57;5.30;;;10.10;96.00;;;;;;5046697;28;20262;-75
2021/11/29 00:48:40;;;;;;;6.55;4.53;;;10.10;95.90;;;;;;5051385;28;20205;-75
2021/11/29 00:51:05;;;;;;;7.30;4.13;;;10.00;96.20;;;;;;5049309;28;20677;-75
2021/11/29 00:53:31;;;;;;;5.50;4.53;;;10.00;95.70;;;;;;5057666;28;20175;-75
2021/11/29 00:55:57;;;;;;;4.47;3.83;;;10.10;95.60;;;;;;5054928;28;20183;-75
2021/11/29 00:58:22;;;;;;;4.80;4.20;;;10.10;95.50;;;;;;5052510;28;20195;-75
2021/11/29 01:00:48;;;;;;;6.60;3.60;;;10.10;95.40;;;;;;5048998;28;20192;-75
2021/11/29 01:03:14;;;;;;;5.43;4.13;;;10.20;95.50;;;;;;5051131;28;20601;-75
2021/11/29 01:05:40;;;;;;;7.70;5.10;;;10.20;95.60;;;;;;5058172;28;20187;-75
2021/11/29 01:08:06;;;;;;;6.72;4.85;;;10.20;96.00;;;;;;5054279;28;20178;-75
2021/11/29 01:10:32;;;;;;;4.78;4.43;;;10.20;96.20;;;;;;5053277;28;20195;-75
2021/11/29 01:12:59;;;;;;;6.03;4.97;;;10.20;96.90;;;;;;5055856;28;20786;-75
2021/11/29 01:15:31;;;;;;;5.93;4.43;;;10.20;96.50;;;;;;5051794;28;20195;-75
2021/11/29 01:17:57;;;;;;;9.27;4.88;;;10.20;96.30;;;;;;5047994;28;20187;-75
2021/11/29 01:20:23;;;;;;;6.20;4.63;;;10.30;96.10;;;;;;5049822;28;20394;-74
2021/11/29 01:22:49;;;;;;;3.88;3.55;;;10.30;95.70;;;;;;5048386;28;20537;-74
2021/11/29 01:25:15;;;;;;;6.23;4.17;;;10.40;95.80;;;;;;5046179;28;20187;-74
2021/11/29 01:27:41;;;;;;;4.28;3.85;;;10.40;95.80;;;;;;5049999;28;20182;-75
2021/11/29 01:30:09;;;;;;;4.55;4.03;;;10.40;95.70;;;;;;5054247;28;20190;-75
2021/11/29 01:32:35;;;;;;;4.80;4.40;;;10.50;95.60;;;;;;5050085;28;20184;-74
2021/11/29 01:35:01;;;;;;;6.90;4.10;;;10.50;95.90;;;;;;5051618;28;20188;-74
2021/11/29 01:37:27;;;;;;;4.93;4.38;;;10.50;95.80;;;;;;5047924;28;20249;-74
2021/11/29 01:39:53;;;;;;;5.65;4.05;;;10.50;96.10;;;;;;5049050;28;20748;-74
2021/11/29 01:42:19;;;;;;;4.70;4.25;;;10.50;96.00;;;;;;5046068;28;20567;-75
2021/11/29 01:44:44;;;;;;;6.03;4.93;;;10.50;96.00;;;;;;5052003;28;20715;-75
2021/11/29 01:47:10;;;;;;;5.53;4.80;;;10.50;95.80;;;;;;5047522;28;20282;-75
2021/11/29 01:49:35;;;;;;;5.18;4.70;;;10.50;95.80;;;;;;5054698;28;20186;-75
2021/11/29 01:52:02;;;;;;;6.40;5.20;;;10.50;95.90;;;;;;5052235;28;20891;-74
2021/11/29 01:54:27;;;;;;;8.55;4.82;;;10.50;96.10;;;;;;5048843;28;20214;-74
2021/11/29 01:56:53;;;;;;;5.38;4.20;;;10.40;96.10;;;;;;5052930;28;20206;-75
2021/11/29 01:59:19;;;;;;;4.43;4.05;;;10.50;96.00;;;;;;5048715;28;20201;-74
2021/11/29 02:01:45;;;;;;;9.38;5.07;;;10.40;96.40;;;;;;5050938;28;20608;-75
2021/11/29 02:04:12;;;;;;;7.90;4.47;;;10.40;96.30;;;;;;5054148;28;20210;-75
2021/11/29 02:06:40;;;;;;;7.57;4.65;;;10.40;96.50;;;;;;5046441;28;20175;-75
2021/11/29 02:09:10;;;;;;;4.50;4.10;;;10.40;96.60;;;;;;5054809;28;20579;-75
2021/11/29 02:11:36;;;;;;;4.60;4.28;;;10.40;96.70;;;;;;5043833;28;20705;-75
2021/11/29 02:14:03;;;;;;;7.35;4.68;;;10.40;96.50;;;;;;5051240;28;20611;-75
2021/11/29 02:16:30;;;;;;;7.60;4.07;;;10.40;96.70;;;;;;5049415;28;20201;-75
2021/11/29 02:18:57;;;;;;;7.03;4.35;;;10.40;96.60;;;;;;5053056;28;20176;-74
2021/11/29 02:21:30;;;;;;;5.05;4.53;;;10.40;97.20;;;;;;5044962;28;20221;-75
2021/11/29 02:24:02;;;;;;;5.03;4.55;;;10.40;96.80;;;;;;5059092;28;20294;-74
2021/11/29 02:26:29;;;;;;;10.32;5.32;;;10.30;96.70;;;;;;5050782;28;20626;-75
2021/11/29 02:29:09;;;;;;;6.55;4.65;;;10.40;96.50;;;;;;5053266;28;20948;-75
2021/11/29 02:31:37;;;;;;;7.72;5.28;;;10.40;96.70;;;;;;5042848;28;20274;-75
2021/11/29 02:34:19;;;;;;;7.40;5.50;;;10.30;97.00;;;;;;5055859;28;20577;-75
2021/11/29 02:36:45;;;;;;;5.88;4.95;;;10.20;97.40;;;;;;5053049;28;20191;-75
2021/11/29 02:39:13;;;;;;;5.38;4.75;;;10.20;97.40;;;;;;5059496;28;20233;-74
2021/11/29 02:41:40;;;;;;;4.82;3.97;;;10.10;97.40;;;;;;5053603;28;20187;-74
2021/11/29 02:44:06;;;;;;;4.95;4.28;;;10.10;97.30;;;;;;5049838;28;20325;-75
2021/11/29 02:46:32;;;;;;;6.45;4.93;;;10.20;97.60;;;;;;5051390;28;20199;-74
2021/11/29 02:48:58;;;;;;;4.88;4.40;;;10.10;98.20;;;;;;5046841;28;20185;-74
2021/11/29 02:51:26;;;;;;;5.25;4.45;;;10.00;98.10;;;;;;5051418;28;20224;-75
2021/11/29 02:53:57;;;;;;;5.95;4.40;;;10.10;97.80;;;;;;5053480;28;20183;-74
2021/11/29 02:56:23;;;;;;;4.17;3.77;;;10.10;98.00;;;;;;5053719;28;20187;-74
2021/11/29 02:58:49;;;;;;;4.80;4.32;;;10.10;98.30;;;;;;5052033;28;20218;-74
2021/11/29 03:01:15;;;;;;;4.97;4.28;;;10.10;98.00;;;;;;5043650;28;20184;-74
2021/11/29 03:03:53;;;;;;;4.15;3.63;;;10.10;98.40;;;;;;5050858;28;20293;-74
2021/11/29 03:06:19;;;;;;;7.07;4.63;;;10.10;98.10;;;;;;5050298;28;20192;-74
2021/11/29 03:08:45;;;;;;;6.15;4.28;;;10.10;98.50;;;;;;5056161;28;20178;-74
2021/11/29 03:11:16;;;;;;;9.82;4.38;;;10.10;98.20;;;;;;5056160;28;20243;-74
2021/11/29 03:13:42;;;;;;;6.55;4.40;;;10.20;98.20;;;;;;5057888;28;20656;-74
2021/11/29 03:16:09;;;;;;;6.13;4.32;;;10.20;98.10;;;;;;5051243;28;20219;-74
2021/11/29 03:18:40;;;;;;;4.45;4.05;;;10.20;98.20;;;;;;5058313;28;20266;-74
2021/11/29 03:21:07;;;;;;;9.02;4.25;;;10.20;98.50;;;;;;5051787;28;20271;-74
2021/11/29 03:23:33;;;;;;;5.30;3.55;;;10.30;98.40;;;;;;5057816;28;20601;-74
2021/11/29 03:26:00;;;;;;;4.22;3.90;;;10.20;98.50;;;;;;5057841;28;20172;-75
2021/11/29 03:28:25;;;;;;;5.75;3.88;;;10.10;98.50;;;;;;5058086;28;20556;-75
2021/11/29 03:30:51;;;;;;;5.75;4.07;;;10.00;98.50;;;;;;5048808;28;20270;-74
2021/11/29 03:33:17;;;;;;;3.75;3.40;;;10.00;98.50;;;;;;5060989;28;20723;-76
2021/11/29 03:35:43;;;;;;;3.90;3.55;;;10.00;98.50;;;;;;5053328;28;20634;-76
2021/11/29 03:38:09;;;;;;;4.28;3.78;;;10.10;98.50;;;;;;5056377;28;20186;-76
2021/11/29 03:40:36;;;;;;;5.13;3.55;;;10.10;98.50;;;;;;5052848;28;20176;-75
2021/11/29 03:43:02;;;;;;;3.25;3.00;;;10.10;98.50;;;;;;5053861;28;20206;-75
2021/11/29 03:45:27;;;;;;;3.45;3.22;;;10.20;98.50;;;;;;5051305;28;20207;-75
2021/11/29 03:47:53;;;;;;;3.22;2.88;;;10.10;98.50;;;;;;5047996;28;20191;-75
2021/11/29 03:50:19;;;;;;;3.50;3.20;;;10.10;98.50;;;;;;5051356;28;20654;-75
2021/11/29 03:52:44;;;;;;;3.45;3.00;;;10.10;98.50;;;;;;5051314;28;20187;-75
2021/11/29 03:55:10;;;;;;;1.83;1.83;;;10.10;98.50;;;;;;5052170;28;20187;-75
2021/11/29 03:57:36;;;;;;;1.95;1.67;;;10.10;98.50;;;;;;5050755;28;20184;-75
2021/11/29 04:00:02;;;;;;;0.80;0.80;;;10.10;98.50;;;;;;5052057;28;20183;-75
2021/11/29 04:02:28;;;;;;;0.40;0.40;;;10.10;98.50;;;;;;5053263;28;20278;-75
2021/11/29 04:04:54;;;;;;;0.30;0.30;;;10.10;98.50;;;;;;5055420;28;20326;-75
2021/11/29 04:07:20;;;;;;;1.60;0.20;;;10.20;98.50;;;;;;5047196;28;20177;-74
2021/11/29 04:09:46;;;;;;;0.17;0.17;;;10.20;98.50;;;;;;5054823;28;20889;-74
2021/11/29 04:12:12;;;;;;;0.43;0.20;;;10.20;98.50;;;;;;5042824;28;20176;-74
2021/11/29 04:14:38;;;;;;;0.10;0.10;;;10.20;98.50;;;;;;5048015;28;20202;-74
2021/11/29 04:17:04;;;;;;;0.00;0.00;;;10.20;98.50;;;;;;5049989;28;20187;-74
2021/11/29 04:19:29;;;;;;;0.00;0.00;;;10.20;98.50;;;;;;5047494;28;20179;-72
2021/11/29 04:21:55;;;;;;;0.20;0.20;;;10.20;98.50;;;;;;5056970;28;20245;-74
2021/11/29 04:24:23;;;;;;;0.10;0.10;;;10.20;98.50;;;;;;5047690;28;20203;-74
2021/11/29 04:26:53;;;;;;;0.10;0.10;;;10.20;98.50;;;;;;5046776;28;20199;-74
2021/11/29 04:29:27;;;;;;;0.10;0.10;;;10.20;98.50;;;;;;5050093;28;20191;-74
2021/11/29 04:31:53;;;;;;;0.08;0.08;;;10.20;98.30;;;;;;5044873;28;20256;-73
2021/11/29 04:34:19;;;;;;;0.00;0.00;;;10.20;97.30;;;;;;5057753;28;20187;-73
2021/11/29 04:36:44;;;;;;;0.00;0.00;;;10.20;97.00;;;;;;5047864;28;20194;-73
2021/11/29 04:39:11;;;;;;;0.10;0.10;;;10.20;97.30;;;;;;5043525;28;20567;-73
2021/11/29 04:41:36;;;;;;;0.10;0.10;;;10.20;97.30;;;;;;5049171;28;20229;-74
2021/11/29 04:44:02;;;;;;;0.00;0.00;;;10.10;97.10;;;;;;5049840;28;20207;-75
2021/11/29 04:46:28;;;;;;;0.10;0.10;;;10.20;95.90;;;;;;5050257;28;20274;-75
2021/11/29 04:48:53;;;;;;;0.10;0.10;;;10.20;95.80;;;;;;5050747;28;20186;-73
2021/11/29 04:51:19;;;;;;;0.00;0.00;;;10.20;95.70;;;;;;5052510;28;20187;-73
2021/11/29 04:53:45;;;;;;;0.03;0.03;;;10.30;94.90;;;;;;5047560;28;20188;-74
2021/11/29 04:56:10;;;;;;;0.00;0.00;;;10.40;95.10;;;;;;5051133;28;20187;-74
2021/11/29 04:58:36;;;;;;;0.10;0.10;;;10.40;94.00;;;;;;5049085;28;20735;-74
2021/11/29 05:01:02;;;;;;;0.08;0.08;;;10.50;94.00;;;;;;5051224;28;20178;-74
2021/11/29 05:03:27;;;;;;;0.00;0.00;;;10.50;93.90;;;;;;5053623;28;20732;-74
2021/11/29 05:05:53;;;;;;;0.00;0.00;;;10.50;93.70;;;;;;5051015;28;20187;-74
2021/11/29 05:08:19;;;;;;;0.00;0.00;;;10.60;93.60;;;;;;5050178;28;20183;-74
2021/11/29 05:10:44;;;;;;;0.10;0.10;;;10.60;94.00;;;;;;5047423;28;20198;-74
2021/11/29 05:13:12;;;;;;;0.10;0.10;;;10.60;93.70;;;;;;5047531;28;20695;-74
2021/11/29 05:15:37;;;;;;;0.10;0.10;;;10.60;93.80;;;;;;5052547;28;20206;-74
2021/11/29 05:18:03;;;;;;;0.10;0.10;;;10.60;93.80;;;;;;5055303;28;20176;-74
2021/11/29 05:20:29;;;;;;;1.25;0.10;;;10.60;93.60;;;;;;5047945;28;20179;-74
2021/11/29 05:22:55;;;;;;;0.10;0.10;;;10.60;93.90;;;;;;5045683;28;20186;-75
2021/11/29 05:25:21;;;;;;;0.10;0.10;;;10.60;93.50;;;;;;5050505;28;20277;-74
2021/11/29 05:27:47;;;;;;;0.10;0.10;;;10.70;93.40;;;;;;5051710;28;20190;-75
2021/11/29 05:30:13;;;;;;;0.10;0.10;;;10.80;93.50;;;;;;5053349;28;20179;-74
2021/11/29 05:32:39;;;;;;;0.20;0.20;;;10.70;93.20;;;;;;5049037;28;20179;-74
2021/11/29 05:35:05;;;;;;;0.10;0.10;;;10.80;93.30;;;;;;5054347;28;20272;-74
2021/11/29 05:37:31;;;;;;;0.10;0.10;;;10.80;93.20;;;;;;5049026;28;20183;-74
2021/11/29 05:39:57;;;;;;;0.10;0.10;;;10.80;93.20;;;;;;5050036;28;20183;-74
2021/11/29 05:42:23;;;;;;;0.17;0.17;;;10.80;92.80;;;;;;5050484;28;20174;-74
2021/11/29 05:44:50;;;;;;;0.10;0.10;;;10.70;92.80;;;;;;5048442;28;20218;-74
2021/11/29 05:47:20;;;;;;;0.10;0.10;;;10.70;92.70;;;;;;5044935;28;20262;-75
2021/11/29 05:49:46;;;;;;;0.10;0.10;;;10.80;92.20;;;;;;5050058;28;20332;-74
2021/11/29 05:52:12;;;;;;;0.10;0.10;;;10.80;92.30;;;;;;5051651;28;20171;-75
2021/11/29 05:54:38;;;;;;;0.43;0.20;;;10.80;92.30;;;;;;5051233;28;20178;-75
2021/11/29 05:57:04;;;;;;;0.20;0.20;;;10.80;92.00;;;;;;5055376;28;20667;-75
2021/11/29 05:59:30;;;;;;;0.20;0.20;;;10.90;91.90;;;;;;5048985;28;20271;-74
2021/11/29 06:01:56;;;;;;;0.20;0.20;;;10.90;91.40;;;;;;5052309;28;20175;-74
2021/11/29 06:04:21;;;;;;;0.20;0.20;;;11.00;91.30;;;;;;5048676;28;20773;-75
2021/11/29 06:06:47;;;;;;;0.47;0.20;;;11.00;91.30;;;;;;5048775;28;20252;-75
2021/11/29 06:09:13;;;;;;;0.20;0.20;;;11.10;91.60;;;;;;5047999;28;20186;-75
2021/11/29 06:11:39;;;;;;;1.90;0.95;;;11.10;91.20;;;;;;5048656;28;20197;-75
2021/11/29 06:14:05;;;;;;;1.20;1.10;;;11.10;92.70;;;;;;5046521;28;20206;-75
2021/11/29 06:16:31;;;;;;;1.33;1.20;;;11.10;93.00;;;;;;5058724;28;20187;-75
2021/11/29 06:18:57;;;;;;;0.70;0.70;;;11.10;93.20;;;;;;5057893;28;20595;-75
2021/11/29 06:21:22;;;;;;;0.95;0.95;;;11.10;93.20;;;;;;5060051;28;20182;-75
2021/11/29 06:23:48;;;;;;;0.93;0.93;;;11.10;93.50;;;;;;5052427;28;20200;-75
2021/11/29 06:26:14;;;;;;;1.08;1.08;;;11.10;93.50;;;;;;5054753;28;20234;-75
2021/11/29 06:28:40;;;;;;;3.08;1.35;;;11.10;93.60;;;;;;5053934;28;20175;-75
2021/11/29 06:31:06;;;;;;;1.15;1.10;;;11.10;93.70;;;;;;5049863;28;20175;-75
2021/11/29 06:33:32;;;;;;;1.33;1.13;;;11.10;94.00;;;;;;5047556;28;20502;-75
2021/11/29 06:35:59;;;;;;;2.72;1.63;;;11.00;94.20;;;;;;5052232;28;20180;-75
2021/11/29 06:38:26;;;;;;;2.08;1.98;;;10.90;95.10;;;;;;5055223;28;20175;-74
2021/11/29 06:40:54;;;;;;;2.03;1.90;;;10.80;95.50;;;;;;5048906;28;20194;-73
2021/11/29 06:43:21;;;;;;;2.05;1.90;;;10.70;95.70;;;;;;5049089;28;20194;-75
2021/11/29 06:45:48;;;;;;;1.92;1.83;;;10.60;96.40;;;;;;5051549;28;20987;-74
2021/11/29 06:48:14;;;;;;;1.92;1.83;;;10.60;96.70;;;;;;5054944;28;20210;-72
2021/11/29 06:50:40;;;;;;;1.88;1.88;;;10.50;97.10;;;;;;5052023;28;20180;-74
2021/11/29 06:53:06;;;;;;;2.17;2.08;;;10.40;97.50;;;;;;5056614;28;20252;-75
2021/11/29 06:55:33;;;;;;;1.98;1.83;;;10.30;97.50;;;;;;5056082;28;20258;-74
2021/11/29 06:58:03;;;;;;;4.10;1.70;;;10.40;97.20;;;;;;5052711;28;20211;-76
2021/11/29 07:00:30;;;;;;;1.55;1.55;;;10.40;96.80;;;;;;5051624;28;20244;-76
2021/11/29 07:02:57;;;;;;;1.67;1.60;;;10.40;96.90;;;;;;5048857;28;20183;-76
2021/11/29 07:05:25;;;;;;;1.50;1.50;;;10.50;96.70;;;;;;5050574;28;20239;-75
2021/11/29 07:07:51;;;;;;;1.58;1.30;;;10.50;96.70;;;;;;5052102;28;20192;-74
2021/11/29 07:10:18;;;;;;;2.42;1.70;;;10.50;97.00;;;;;;5045679;28;20209;-74
2021/11/29 07:12:44;;;;;;;1.40;1.40;;;10.50;97.80;;;;;;5049202;28;20202;-76
2021/11/29 07:15:11;;;;;;;2.83;1.52;;;10.50;97.90;;;;;;5050062;28;20192;-76
2021/11/29 07:17:37;;;;;;;1.52;1.52;;;10.40;98.00;;;;;;5048866;28;20183;-77
2021/11/29 07:20:05;;;;;;;1.27;1.27;;;10.40;98.10;;;;;;5049783;28;20600;-74
2021/11/29 07:22:31;;;;;;;1.83;1.73;;;10.40;97.70;;;;;;5053907;28;20191;-73
2021/11/29 07:25:01;;;;;;;1.48;1.48;;;10.50;97.90;;;;;;5052910;28;20211;-73
2021/11/29 07:27:26;;;;;;;1.27;1.20;;;10.60;97.80;;;;;;5054887;28;20184;-74
2021/11/29 07:29:52;;;;;;;1.65;1.48;;;10.60;97.70;;;;;;5046124;28;20973;-75
2021/11/29 07:32:22;;;;;;;1.60;1.50;;;10.70;97.40;;;;;;5046297;28;20729;-75
2021/11/29 07:34:48;;;;;;;1.58;1.50;;;10.80;97.10;;;;;;5048674;28;20908;-74
2021/11/29 07:37:16;;;;;;;1.50;1.50;;;10.80;97.20;;;;;;5054963;28;20194;-74
2021/11/29 07:39:45;;;;;;;1.75;1.60;;;10.80;97.20;;;;;;5053153;28;20187;-74
2021/11/29 07:42:11;;;;;;;1.70;1.60;;;10.90;97.20;;;;;;5046705;28;20559;-74
2021/11/29 07:44:37;;;;;;;1.38;1.30;;;10.90;97.20;;;;;;5044449;28;20206;-74
2021/11/29 07:47:03;;;;;;;1.63;1.40;;;10.90;97.10;;;;;;5048731;28;20180;-74
2021/11/29 07:49:29;;;;;;;1.85;1.75;;;10.90;97.00;;;;;;5047702;28;20195;-74
2021/11/29 07:51:55;;;;;;;1.90;1.80;;;11.00;96.80;;;;;;5053590;28;20179;-74
2021/11/29 07:54:21;;;;;;;4.40;1.77;;;11.00;96.80;;;;;;5055032;28;20260;-74
2021/11/29 07:56:46;;;;;;;2.13;1.75;;;10.90;97.10;;;;;;5048440;28;20194;-74
2021/11/29 07:59:12;;;;;;;3.53;1.83;;;10.90;97.10;;;;;;5051975;28;20195;-76
2021/11/29 08:01:38;;;;;;;2.40;2.30;;;10.90;97.20;;;;;;5052217;28;20194;-75
2021/11/29 08:04:04;;;;;;;1.88;1.77;;;11.00;97.30;;;;;;5048368;28;20211;-75
2021/11/29 08:06:30;;;;;;;1.80;1.70;;;11.00;97.30;;;;;;5048699;28;20257;-75
2021/11/29 08:08:56;;;;;;;2.50;2.28;;;11.00;97.50;;;;;;5048655;28;20267;-75
2021/11/29 08:11:22;;;;;;;3.88;2.85;;;11.10;97.50;;;;;;5044069;28;20664;-75
2021/11/29 08:13:48;;;;;;;3.13;2.88;;;11.10;97.50;;;;;;5046944;28;20187;-76
2021/11/29 08:16:14;;;;;;;1.92;1.75;;;11.10;97.50;;;;;;5048165;28;20203;-76
2021/11/29 08:18:40;;;;;;;1.27;0.82;;;11.10;96.40;;;;;;5053925;28;20183;-76
2021/11/29 08:21:05;;;;;;;0.80;0.80;;;10.90;94.80;;;;;;5052206;28;20184;-76
2021/11/29 08:23:32;;;;;;;0.63;0.63;;;10.80;94.00;;;;;;5046785;28;20210;-76
2021/11/29 08:25:57;;;;;;;0.50;0.50;;;10.60;94.00;;;;;;5055816;28;20585;-76
2021/11/29 08:28:23;;;;;;;0.63;0.57;;;10.40;94.30;;;;;;5055247;28;20188;-75
2021/11/29 08:30:50;;;;;;;0.63;0.40;;;10.10;94.10;;;;;;5047450;28;20995;-76
2021/11/29 08:33:16;;;;;;;0.30;0.30;;;9.70;93.60;;;;;;5049294;28;20280;-77
2021/11/29 08:35:44;;;;;;;0.40;0.40;;;9.30;94.40;;;;;;5053653;28;20245;-77
2021/11/29 08:38:10;;;;;;;0.40;0.40;;;8.70;94.50;;;;;;5052257;28;20179;-78
2021/11/29 08:40:36;;;;;;;0.30;0.30;;;8.40;95.90;;;;;;5050022;28;20176;-76
2021/11/29 08:43:06;;;;;;;0.37;0.30;;;8.00;96.40;;;;;;5047891;28;20661;-78
2021/11/29 08:45:33;;;;;;;0.20;0.20;;;7.70;97.00;;;;;;5054862;28;20191;-76
2021/11/29 08:48:05;;;;;;;1.03;0.20;;;7.40;97.10;;;;;;5051907;28;20263;-77
2021/11/29 08:50:31;;;;;;;0.47;0.40;;;7.20;97.90;;;;;;5054933;28;20190;-76
2021/11/29 08:53:03;;;;;;;0.20;0.20;;;7.10;98.50;;;;;;5049020;28;20179;-75
2021/11/29 08:55:29;;;;;;;0.20;0.20;;;7.00;98.50;;;;;;5052512;28;20179;-76
2021/11/29 08:57:55;;;;;;;0.30;0.30;;;6.90;98.50;;;;;;5051514;28;20205;-75
2021/11/29 09:00:21;;;;;;;0.40;0.40;;;6.90;98.50;;;;;;5049207;28;20214;-75
2021/11/29 09:02:48;;;;;;;0.33;0.33;;;6.80;98.50;;;;;;5054334;28;20275;-75
2021/11/29 09:05:15;;;;;;;0.57;0.40;;;6.80;98.50;;;;;;5048949;28;20239;-74
2021/11/29 09:07:41;;;;;;;0.40;0.40;;;6.60;98.40;;;;;;5047671;28;20179;-75
2021/11/29 09:10:08;;;;;;;0.30;0.30;;;6.60;98.20;;;;;;5047023;28;20187;-75
2021/11/29 09:12:37;;;;;;;0.70;0.30;;;6.50;97.90;;;;;;5048024;28;20194;-74
2021/11/29 09:15:10;;;;;;;0.47;0.47;;;6.40;97.70;;;;;;5044483;28;20187;-75
2021/11/29 09:17:36;;;;;;;2.73;0.57;;;6.40;98.10;;;;;;5045247;28;20761;-73
2021/11/29 09:20:05;;;;;;;0.20;0.20;;;6.40;98.30;;;;;;5045143;28;20606;-73
2021/11/29 09:22:30;;;;;;;0.43;0.43;;;6.30;98.10;;;;;;5048786;28;20187;-72
2021/11/29 09:24:59;;;;;;;0.40;0.40;;;6.30;98.50;;;;;;5052061;28;21011;-73
2021/11/29 09:27:26;;;;;;;1.40;0.43;;;6.20;98.50;;;;;;5045407;28;20183;-72
2021/11/29 09:29:52;;;;;;;0.30;0.30;;;6.20;98.50;;;;;;5048709;28;20212;-73
2021/11/29 09:32:18;;;;;;;0.30;0.30;;;6.20;98.50;;;;;;5044875;28;20183;-74
2021/11/29 09:34:45;;;;;;;0.37;0.37;;;6.20;98.50;;;;;;5040301;28;20352;-73
2021/11/29 09:37:11;;;;;;;0.47;0.40;;;6.30;98.50;;;;;;5044041;28;20187;-73
2021/11/29 09:39:37;;;;;;;0.30;0.30;;;6.20;98.50;;;;;;5045199;28;20210;-73
2021/11/29 09:42:03;;;;;;;1.80;0.53;;;6.20;98.50;;;;;;5044423;28;20190;-73
2021/11/29 09:44:29;;;;;;;0.30;0.30;;;6.20;98.50;;;;;;5047071;28;20272;-74
2021/11/29 09:46:55;;;;;;;1.27;1.27;;;6.30;98.50;;;;;;5048710;28;20261;-74
2021/11/29 09:49:21;;;;;;;1.03;0.90;;;6.30;98.50;;;;;;5049148;28;20183;-74
2021/11/29 09:51:47;;;;;;;0.60;0.60;;;6.30;98.50;;;;;;5042350;28;20187;-74
2021/11/29 09:54:13;;;;;;;0.10;0.10;;;6.30;98.50;;;;;;5049113;28;20196;-74
2021/11/29 09:56:39;;;;;;;0.10;0.10;;;6.20;98.40;;;;;;5048848;28;20175;-73
2021/11/29 09:59:05;;;;;;;0.40;0.40;;;6.20;98.50;;;;;;5042738;28;20191;-73
2021/11/29 10:01:31;;;;;;;0.17;0.17;;;6.20;98.50;;;;;;5043373;28;20188;-73
2021/11/29 10:03:57;;;;;;;0.20;0.20;;;6.20;98.50;;;;;;5045285;28;20286;-73
2021/11/29 10:06:23;;;;;;;0.27;0.27;;;6.20;98.50;;;;;;5050279;28;20755;-74
2021/11/29 10:08:50;;;;;;;0.47;0.47;;;6.20;98.50;;;;;;5045901;28;20179;-74
2021/11/29 10:11:17;;;;;;;0.53;0.50;;;6.20;98.50;;;;;;5046693;28;20180;-73
2021/11/29 10:13:48;;;;;;;0.67;0.67;;;6.30;98.50;;;;;;5045992;28;20898;-74
2021/11/29 10:16:42;;;;;;;0.90;0.90;;;6.30;98.50;;;;;;5043209;28;20699;-73
2021/11/29 10:19:17;;;;;;;1.07;0.83;;;6.30;98.50;;;;;;5046454;28;20187;-74
2021/11/29 10:21:43;;;;;;;0.77;0.60;;;6.40;98.50;;;;;;5046436;28;20187;-73
2021/11/29 10:24:18;;;;;;;0.67;0.67;;;6.30;98.50;;;;;;5050309;28;20711;-74
2021/11/29 10:26:53;;;;;;;0.70;0.70;;;6.30;98.20;;;;;;5048595;28;20184;-74
2021/11/29 10:29:19;;;;;;;1.30;0.60;;;6.30;98.20;;;;;;5052140;28;20178;-74
2021/11/29 10:31:51;;;;;;;0.50;0.50;;;6.30;98.50;;;;;;5045512;28;20281;-74
2021/11/29 10:34:18;;;;;;;0.40;0.40;;;6.30;98.10;;;;;;5049398;28;20187;-74
2021/11/29 10:36:50;;;;;;;0.70;0.70;;;6.20;98.30;;;;;;5050364;28;20685;-74
2021/11/29 10:39:21;;;;;;;0.50;0.50;;;6.20;98.40;;;;;;5041179;28;20188;-74
2021/11/29 10:41:49;;;;;;;0.40;0.40;;;6.30;98.30;;;;;;5043293;28;20194;-73
2021/11/29 10:44:22;;;;;;;1.57;0.70;;;6.20;98.20;;;;;;5050480;28;20200;-74
2021/11/29 10:46:54;;;;;;;1.80;0.77;;;6.20;98.20;;;;;;5051217;28;20241;-74
2021/11/29 10:49:27;;;;;;;0.60;0.60;;;6.20;98.00;;;;;;5049204;28;20266;-74
2021/11/29 10:51:57;;;;;;;0.90;0.90;;;6.20;98.00;;;;;;5051779;28;21879;-74
2021/11/29 10:54:25;;;;;;;0.50;0.50;;;6.30;97.90;;;;;;5044432;28;20191;-74
2021/11/29 10:56:55;;;;;;;0.50;0.50;;;6.30;98.00;;;;;;5040960;28;20187;-75
2021/11/29 10:59:24;;;;;;;0.47;0.47;;;6.50;98.00;;;;;;5053078;28;21031;-74
2021/11/29 11:01:53;;;;;;;0.80;0.80;;;6.60;97.90;;;;;;5050906;28;20644;-74
2021/11/29 11:04:25;;;;;;;0.63;0.57;;;6.60;97.10;;;;;;5047540;28;20281;-75
2021/11/29 11:07:02;;;;;;;0.60;0.60;;;6.60;97.00;;;;;;5052208;28;20197;-74
2021/11/29 11:09:35;;;;;;;0.70;0.70;;;6.50;96.10;;;;;;5054829;28;20881;-74
2021/11/29 11:12:04;;;;;;;3.90;0.90;;;6.50;96.10;;;;;;5058057;28;20183;-75
2021/11/29 11:14:53;;;;;;;1.03;1.03;;;6.60;96.30;;;;;;5055437;28;20206;-74
2021/11/29 11:17:21;;;;;;;1.00;1.00;;;6.60;96.30;;;;;;5043657;28;20211;-74
2021/11/29 11:19:53;;;;;;;0.83;0.83;;;6.60;96.40;;;;;;5047206;28;20187;-71
2021/11/29 11:22:23;;;;;;;0.73;0.73;;;6.60;96.70;;;;;;5042005;28;20188;-72
2021/11/29 11:25:04;;;;;;;0.83;0.83;;;6.70;96.50;;;;;;5052926;28;20343;-72
2021/11/29 11:27:40;;;;;;;0.70;0.70;;;6.80;96.60;;;;;;5051118;28;20205;-71
2021/11/29 11:30:15;;;;;;;0.80;0.80;;;6.90;96.90;;;;;;5054601;28;20265;-72
2021/11/29 11:32:46;;;;;;;0.90;0.90;;;7.10;97.00;;;;;;5056541;28;20213;-73
2021/11/29 11:35:19;;;;;;;1.00;1.00;;;7.20;97.10;;;;;;5046576;28;20183;-71
2021/11/29 11:37:56;;;;;;;0.63;0.63;;;7.30;97.10;;;;;;5043378;28;20218;-71
2021/11/29 11:40:25;;;;;;;0.70;0.70;;;7.40;96.90;;;;;;5050674;28;20182;-72
2021/11/29 11:42:53;;;;;;;3.07;1.30;;;7.40;96.90;;;;;;5048439;28;20176;-71
2021/11/29 11:45:27;;;;;;;1.10;1.10;;;7.40;96.60;;;;;;5054857;28;20645;-71
2021/11/29 11:47:54;;;;;;;0.87;0.87;;;7.40;95.50;;;;;;5054065;28;20273;-71
2021/11/29 11:50:23;;;;;;;1.10;1.00;;;7.40;94.90;;;;;;5048322;28;20196;-71
2021/11/29 11:52:50;;;;;;;1.80;0.70;;;7.30;95.40;;;;;;5053063;28;21782;-72
2021/11/29 11:55:19;;;;;;;0.90;0.90;;;7.30;95.70;;;;;;5039168;28;20187;-71
2021/11/29 11:57:52;;;;;;;1.13;1.00;;;7.30;95.40;;;;;;5049012;28;20278;-71
2021/11/29 12:00:20;;;;;;;1.07;1.07;;;7.20;95.60;;;;;;5050224;28;20187;-72
2021/11/29 12:03:10;;;;;;;1.60;1.20;;;7.30;95.70;;;;;;5052227;28;20184;-73
2021/11/29 12:05:47;;;;;;;1.67;1.20;;;7.20;95.70;;;;;;5047270;28;20216;-71
2021/11/29 12:08:40;;;;;;;1.57;1.50;;;7.20;95.90;;;;;;5053119;28;20201;-71
2021/11/29 12:11:26;;;;;;;1.00;0.90;;;7.10;95.00;;;;;;5051471;28;20179;-71
2021/11/29 12:14:22;;;;;;;1.00;0.90;;;7.00;95.10;;;;;;5041261;28;20195;-71
2021/11/29 12:16:55;;;;;;;1.10;1.10;;;6.90;95.70;;;;;;5040813;28;20258;-70
2021/11/29 12:20:02;;;;;;;0.50;0.50;;;6.80;95.90;;;;;;5040472;28;21023;-71
2021/11/29 12:22:23;;;;;;;0.50;0.50;;;6.70;95.90;;;;;;5039362;28;20284;-72
2021/11/29 12:24:56;;;;;;;1.30;0.40;;;6.70;96.30;;;;;;5040864;28;20332;-71
2021/11/29 12:27:23;;;;;;;0.60;0.60;;;6.70;96.10;;;;;;5044137;28;20188;-71
2021/11/29 12:29:53;;;;;;;0.40;0.40;;;6.70;96.40;;;;;;5041904;28;20179;-70
2021/11/29 12:32:24;;;;;;;0.40;0.40;;;6.80;96.70;;;;;;5042036;28;20249;-70
2021/11/29 12:35:01;;;;;;;0.40;0.40;;;6.90;96.80;;;;;;5039121;28;20815;-71
2021/11/29 12:37:36;;;;;;;0.77;0.50;;;6.90;96.70;;;;;;5040301;28;20251;-71
2021/11/29 12:40:08;;;;;;;0.40;0.40;;;7.00;96.70;;;;;;5041824;28;20183;-72
2021/11/29 12:42:33;;;;;;;1.33;0.40;;;7.00;96.50;;;;;;5041725;28;20184;-72
2021/11/29 12:45:08;;;;;;;0.30;0.30;;;7.10;96.50;;;;;;5040515;28;20231;-72
2021/11/29 12:47:44;;;;;;;0.43;0.43;;;7.10;96.10;;;;;;5039140;28;20319;-71
2021/11/29 12:50:32;;;;;;;0.30;0.30;;;7.10;95.90;;;;;;5041854;28;20219;-71
2021/11/29 12:53:29;;;;;;;0.70;0.43;;;7.20;95.90;;;;;;5047361;28;20236;-71